Friday, August 17, 2018, 10:50 PM EDT
Back to Local

KDKK, Chautauqua County/dunkirk

Location: Dunkirk, NY, United States Lat: 42.5
Local Time: 10:50 PM EDT ( 2:50 GMT) Lon: -79.283
Time Zone: US/Eastern Elev: 692 ft

Show me the last for .
Show Decoded

2018-08-17 22:20 METAR KDKK 180220Z AUTO 24006KT 9SM -RA SCT011 SCT026 OVC110 22/21 A2994 RMK AO2
                 P0009 T02220211 =
2018-08-17 22:14 METAR KDKK 180214Z AUTO 24008KT 9SM -RA BKN011 BKN029 OVC100 23/22 A2994 RMK AO2
                 P0009 T02280217 =
2018-08-17 22:04 METAR KDKK 180204Z AUTO 23007KT 2SM RA BR BKN011 BKN014 OVC019 23/22 A2993 RMK
                 AO2 P0009 T02280222 =
2018-08-17 21:53 METAR KDKK 180153Z AUTO 18006KT 4SM +RA BR OVC011 23/22 A2993 RMK AO2 RAB46
                 SLP130 P0004 T02330222 =
2018-08-17 21:18 METAR KDKK 180118Z AUTO 00000KT 10SM OVC013 24/22 A2993 RMK AO2 LTG DSNT E
                 T02390217 =
2018-08-17 20:53 METAR KDKK 180053Z AUTO 23005KT 10SM BKN016 OVC026 24/22 A2993 RMK AO2 SLP131
                 T02390217 =
2018-08-17 19:53 METAR KDKK 172353Z AUTO 24004KT 10SM SCT014 BKN022 24/22 A2992 RMK AO2 SLP126
                 60000 T02440222 10261 20239 53004 =
2018-08-17 18:53 METAR KDKK 172253Z AUTO 26006KT 10SM SCT013 BKN024 24/22 A2990 RMK AO2 SLP121
                 T02440217 =
2018-08-17 18:13 METAR KDKK 172213Z AUTO 25007KT 10SM FEW013 BKN024 BKN033 24/22 A2991 RMK AO2
                 T02440222 =
2018-08-17 17:53 METAR KDKK 172153Z AUTO 24011KT 10SM FEW012 SCT027 SCT065 24/22 A2991 RMK AO2
                 LTG DSNT SE SLP122 T02440222 =
2018-08-17 16:53 METAR KDKK 172053Z AUTO 25011KT 10SM FEW027 26/22 A2991 RMK AO2 SLP122 60000
                 T02560217 58005 =
2018-08-17 15:53 METAR KDKK 171953Z AUTO 24010KT 10SM FEW016 26/22 A2991 RMK AO2 SLP125 T02560222
                 =
2018-08-17 15:19 METAR KDKK 171919Z AUTO 26010G20KT 10SM SCT017 26/22 A2992 RMK AO2 T02610222 =
2018-08-17 14:53 METAR KDKK 171853Z AUTO 25012G22KT 10SM BKN018 BKN024 26/22 A2992 RMK AO2 RAE05
                 SLP127 P0000 T02610222 =
2018-08-17 13:53 METAR KDKK 171753Z AUTO 26011G20KT 8SM -RA SCT027 BKN032 OVC043 24/21 A2992 RMK
                 AO2 RAB45 SLP128 P0000 60000 T02440211 10267 20222 55007 $ =
2018-08-17 12:53 METAR KDKK 171653Z AUTO 23010KT 10SM BKN025 OVC031 26/21 A2991 RMK AO2 SLP125
                 T02560211 $ =
2018-08-17 12:26 METAR KDKK 171626Z AUTO 21013G20KT 10SM BKN025 26/22 A2991 RMK AO2 T02610217 $ =
2018-08-17 11:53 METAR KDKK 171553Z AUTO 21016KT 10SM FEW110 25/21 A2992 RMK AO2 SLP126 T02500211
                 $ =
2018-08-17 10:53 METAR KDKK 171453Z AUTO 20011G18KT 9SM FEW070 FEW090 BKN110 23/21 A2995 RMK AO2
                 LTG DSNT W AND NW SLP136 60000 T02330206 58006 $ =
2018-08-17 09:53 METAR KDKK 171353Z AUTO 19011KT 9SM SCT075 BKN120 23/21 A2996 RMK AO2 LTG DSNT
                 NW SLP140 T02330206 $ =
2018-08-17 09:14 METAR KDKK 171314Z AUTO 18014KT 9SM SCT027 BKN033 OVC075 23/21 A2995 RMK AO2
                 T02280206 $ =
2018-08-17 08:53 METAR KDKK 171253Z AUTO 19011KT 10SM OVC026 23/21 A2997 RMK AO2 RAB39E52 SLP143
                 P0000 T02280206 $ =
2018-08-17 07:53 METAR KDKK 171153Z AUTO 19009KT 8SM OVC022 23/21 A2997 RMK AO2 LTG DSNT N SLP142
                 60001 70001 T02280206 10233 20211 55001 $ =
2018-08-17 07:10 METAR KDKK 171110Z AUTO 18015G20KT 9SM BKN024 22/20 A2996 RMK AO2 LTG DSNT NW
                 T02220200 $ =
2018-08-17 06:53 METAR KDKK 171053Z AUTO 18010KT 10SM FEW026 SCT038 BKN055 22/20 A2996 RMK AO2
                 SLP142 T02220200 $ =
2018-08-17 06:06 METAR KDKK 171006Z AUTO 18011KT 10SM SCT026 BKN043 OVC100 22/20 A2996 RMK AO2
                 LTG DSNT E T02220200 $ =
2018-08-17 05:53 METAR KDKK 170953Z AUTO 18012KT 10SM BKN024 BKN031 OVC050 22/20 A2997 RMK AO2
                 LTG DSNT E SLP143 T02220200 $ =
2018-08-17 04:53 METAR KDKK 170853Z AUTO 17013KT 10SM BKN024 BKN055 OVC100 22/19 A2997 RMK AO2
                 LTG DSNT E RAE0757 SLP144 P0000 60001 T02170194 56013 $ =
2018-08-17 04:35 METAR KDKK 170835Z AUTO 19014G20KT 10SM SCT026 BKN034 OVC055 22/19 A2997 RMK AO2
                 RAE0757 P0000 T02170194 $ =
2018-08-17 04:21 METAR KDKK 170821Z AUTO 23008KT 10SM BKN028 BKN033 OVC050 22/20 A2998 RMK AO2
                 RAE0757 P0000 T02170200 $ =
2018-08-17 04:11 METAR KDKK 170811Z AUTO 18009KT 10SM SCT026 OVC031 22/20 A2998 RMK AO2 RAE0757
                 P0000 T02170200 $ =
2018-08-17 03:53 METAR KDKK 170753Z AUTO 18012G17KT 10SM -RA BKN026 OVC031 22/20 A2998 RMK AO2
                 RAB14 SLP147 P0001 T02170200 $ =
2018-08-17 02:53 METAR KDKK 170653Z AUTO 18013G18KT 10SM BKN028 BKN034 OVC050 23/19 A2999 RMK AO2
                 SLP149 T02330194 $ =
2018-08-17 01:53 METAR KDKK 170553Z AUTO 20007KT 10SM SCT030 BKN034 OVC041 23/20 A3001 RMK AO2
                 RAB23E50 SLP157 P0000 60000 T02280200 10256 20228 56008 $ =
2018-08-17 00:53 METAR KDKK 170453Z AUTO 20006KT 10SM FEW033 SCT044 OVC050 24/19 A3001 RMK AO2
                 SLP158 T02390189 402830200 $ =
2018-08-16 23:53 METAR KDKK 170353Z AUTO 19007KT 10SM OVC045 24/19 A3002 RMK AO2 SLP160 T02390189
                 $ =
2018-08-16 22:53 METAR KDKK 170253Z AUTO 20008KT 10SM OVC046 24/19 A3003 RMK AO2 SLP164 60000
                 T02440189 55001 $ =

Support USWX by starting your Amazon purchase here.